createdAt,value
2024-01-16T00:00:58.450Z,118.36
2024-01-16T00:01:58.410Z,118.36
2024-01-16T00:02:58.342Z,118.36
2024-01-16T00:03:58.360Z,118.36
2024-01-16T00:04:58.331Z,118.36
2024-01-16T00:05:58.445Z,118.36
2024-01-16T00:06:58.376Z,118.36
2024-01-16T00:07:58.292Z,118.36
2024-01-16T00:08:58.293Z,118.36
2024-01-16T00:09:58.288Z,118.36
2024-01-16T00:10:58.260Z,118.36
2024-01-16T00:11:58.237Z,118.36
2024-01-16T00:12:58.232Z,118.36
2024-01-16T00:13:58.213Z,118.36
2024-01-16T00:14:58.222Z,118.36
2024-01-16T00:15:58.207Z,118.36
2024-01-16T00:16:58.183Z,118.36
2024-01-16T00:17:58.257Z,118.36
2024-01-16T00:18:58.197Z,118.36
2024-01-16T00:19:58.160Z,118.36
2024-01-16T00:20:58.149Z,118.36
2024-01-16T00:21:58.145Z,118.36
2024-01-16T00:22:58.122Z,118.36
2024-01-16T00:23:58.118Z,118.36
2024-01-16T00:24:58.115Z,118.36
2024-01-16T00:25:58.132Z,118.36
2024-01-16T00:26:58.068Z,118.36
2024-01-16T00:27:58.080Z,118.36
2024-01-16T00:28:58.067Z,118.36
2024-01-16T00:29:58.034Z,118.36
2024-01-16T00:30:58.037Z,118.36
2024-01-16T00:31:58.016Z,118.36
2024-01-16T00:32:58.105Z,118.36
2024-01-16T00:33:58.126Z,118.36
2024-01-16T00:34:57.996Z,118.36
2024-01-16T00:35:58.019Z,118.36
2024-01-16T00:36:57.983Z,118.36
2024-01-16T00:37:57.975Z,118.36
2024-01-16T00:38:57.964Z,118.36
2024-01-16T00:39:57.950Z,118.36
2024-01-16T00:40:57.941Z,118.36
2024-01-16T00:41:57.942Z,118.36
2024-01-16T00:42:57.918Z,118.36
2024-01-16T00:43:57.914Z,118.36
2024-01-16T00:44:57.903Z,118.36
2024-01-16T00:45:57.955Z,118.36
2024-01-16T00:46:57.881Z,118.36
2024-01-16T00:47:58.088Z,118.36
2024-01-16T00:48:57.925Z,118.36
2024-01-16T00:49:57.867Z,118.36
2024-01-16T00:50:57.848Z,118.36
2024-01-16T00:51:57.830Z,118.36
2024-01-16T00:52:57.817Z,118.36
2024-01-16T00:53:57.821Z,118.36
2024-01-16T00:54:57.809Z,118.36
2024-01-16T00:55:57.949Z,118.36
2024-01-16T00:56:57.821Z,118.36
2024-01-16T00:57:57.808Z,118.36
2024-01-16T00:58:57.815Z,118.36
2024-01-16T00:59:57.795Z,118.36
2024-01-16T01:00:57.805Z,118.36
2024-01-16T01:01:57.787Z,118.36
2024-01-16T01:02:57.781Z,118.36
2024-01-16T01:03:57.961Z,118.36
2024-01-16T01:04:57.769Z,118.36
2024-01-16T01:05:57.838Z,118.36
2024-01-16T01:06:57.723Z,118.36
2024-01-16T01:07:57.716Z,118.36
2024-01-16T01:08:57.697Z,118.36
2024-01-16T01:09:57.674Z,118.36
2024-01-16T01:10:57.701Z,118.36
2024-01-16T01:11:57.664Z,118.36
2024-01-16T01:12:57.655Z,118.36
2024-01-16T01:13:57.664Z,118.36
2024-01-16T01:14:57.721Z,118.36
2024-01-16T01:15:57.647Z,118.36
2024-01-16T01:16:57.618Z,118.36
2024-01-16T01:17:57.734Z,118.36
2024-01-16T01:18:57.665Z,118.36
2024-01-16T01:19:57.597Z,118.36
2024-01-16T01:20:57.632Z,118.36
2024-01-16T01:21:57.591Z,118.36
2024-01-16T01:22:57.556Z,118.36
2024-01-16T01:23:57.605Z,118.36
2024-01-16T01:24:57.534Z,118.36
2024-01-16T01:25:57.538Z,118.36
2024-01-16T01:26:57.508Z,118.36
2024-01-16T01:27:57.487Z,118.36
2024-01-16T01:28:57.473Z,118.36
2024-01-16T01:29:57.469Z,118.36
2024-01-16T01:30:57.500Z,118.36
2024-01-16T01:31:57.471Z,118.36
2024-01-16T01:32:57.518Z,118.36
2024-01-16T01:33:57.500Z,118.36
2024-01-16T01:34:57.401Z,118.36
2024-01-16T01:35:57.403Z,118.36
2024-01-16T01:36:57.373Z,118.36
2024-01-16T01:37:57.369Z,118.36
2024-01-16T01:38:57.343Z,118.36
2024-01-16T01:39:57.342Z,118.36
2024-01-16T01:40:57.317Z,118.36
2024-01-16T01:41:57.365Z,118.36
2024-01-16T01:42:57.292Z,118.36
2024-01-16T01:43:57.283Z,118.36
2024-01-16T01:44:57.314Z,118.36
2024-01-16T01:45:57.271Z,118.36
2024-01-16T01:46:57.253Z,118.36
2024-01-16T01:47:57.292Z,118.36
2024-01-16T01:48:57.286Z,118.36
2024-01-16T01:49:57.197Z,118.36
2024-01-16T01:50:57.180Z,118.36
2024-01-16T01:51:57.173Z,118.36
2024-01-16T01:52:57.162Z,118.36
2024-01-16T01:53:57.144Z,118.36
2024-01-16T01:54:57.135Z,118.36
2024-01-16T01:55:57.151Z,118.36
2024-01-16T01:56:57.117Z,118.36
2024-01-16T01:57:57.106Z,118.36
2024-01-16T01:58:57.086Z,118.36
2024-01-16T01:59:57.081Z,118.36
2024-01-16T02:00:57.090Z,118.36
2024-01-16T02:01:57.053Z,118.36
2024-01-16T02:02:57.115Z,118.36
2024-01-16T02:03:57.031Z,118.36
2024-01-16T02:04:57.052Z,118.36
2024-01-16T02:05:57.103Z,118.36
2024-01-16T02:06:56.993Z,118.36
2024-01-16T02:07:56.992Z,118.36
2024-01-16T02:08:56.972Z,118.36
2024-01-16T02:09:56.960Z,118.36
2024-01-16T02:10:56.958Z,118.36
2024-01-16T02:11:56.965Z,118.36
2024-01-16T02:12:56.930Z,118.36
2024-01-16T02:13:56.928Z,118.36
2024-01-16T02:14:56.921Z,118.36
2024-01-16T02:15:56.899Z,118.36
2024-01-16T02:16:56.890Z,118.36
2024-01-16T02:17:56.974Z,118.36
2024-01-16T02:18:56.895Z,118.36
2024-01-16T02:19:56.888Z,118.36
2024-01-16T02:20:56.837Z,118.36
2024-01-16T02:21:56.833Z,118.36
2024-01-16T02:22:56.820Z,118.36
2024-01-16T02:23:56.813Z,118.36
2024-01-16T02:24:56.797Z,118.36
2024-01-16T02:25:56.769Z,118.36
2024-01-16T02:26:56.798Z,118.36
2024-01-16T02:27:56.756Z,118.36
2024-01-16T02:28:56.735Z,118.36
2024-01-16T02:29:56.731Z,118.36
2024-01-16T02:30:56.780Z,118.36
2024-01-16T02:31:56.696Z,118.36
2024-01-16T02:32:56.753Z,118.36
2024-01-16T02:33:56.703Z,118.36
2024-01-16T02:34:56.657Z,118.36
2024-01-16T02:35:56.656Z,118.36
2024-01-16T02:36:56.661Z,118.36
2024-01-16T02:37:56.630Z,118.36
2024-01-16T02:38:56.668Z,118.36
2024-01-16T02:39:56.612Z,118.36
2024-01-16T02:40:56.611Z,118.36
2024-01-16T02:41:56.593Z,118.36
2024-01-16T02:42:56.578Z,118.36
2024-01-16T02:43:56.566Z,118.36
2024-01-16T02:44:56.605Z,118.36
2024-01-16T02:45:56.533Z,118.36
2024-01-16T02:46:56.535Z,118.36
2024-01-16T02:47:56.639Z,118.36
2024-01-16T02:48:56.555Z,118.36
2024-01-16T02:49:56.487Z,118.36
2024-01-16T02:50:56.535Z,118.36
2024-01-16T02:51:56.473Z,118.36
2024-01-16T02:52:56.451Z,118.36
2024-01-16T02:53:56.446Z,118.36
2024-01-16T02:54:56.435Z,118.36
2024-01-16T02:55:56.419Z,118.36
2024-01-16T02:56:56.451Z,118.36
2024-01-16T02:57:56.411Z,118.36
2024-01-16T02:58:56.396Z,118.36
2024-01-16T02:59:56.378Z,118.36
2024-01-16T03:00:56.420Z,118.36
2024-01-16T03:01:56.598Z,118.36
2024-01-16T03:02:56.415Z,118.36
2024-01-16T03:03:56.336Z,118.36
2024-01-16T03:04:56.324Z,118.36
2024-01-16T03:05:56.376Z,118.36
2024-01-16T03:06:56.416Z,118.36
2024-01-16T03:07:56.289Z,118.36
2024-01-16T03:08:56.320Z,118.36
2024-01-16T03:09:56.258Z,118.36
2024-01-16T03:10:56.243Z,118.36
2024-01-16T03:11:56.286Z,118.36
2024-01-16T03:12:56.224Z,118.36
2024-01-16T03:13:56.227Z,118.36
2024-01-16T03:14:56.217Z,118.36
2024-01-16T03:15:56.220Z,118.36
2024-01-16T03:16:56.186Z,118.36
2024-01-16T03:17:56.294Z,118.36
2024-01-16T03:18:56.304Z,118.36
2024-01-16T03:19:56.182Z,118.36
2024-01-16T03:20:56.253Z,118.36
2024-01-16T03:21:56.174Z,118.36
2024-01-16T03:22:56.153Z,118.36
2024-01-16T03:23:56.244Z,118.36
2024-01-16T03:24:56.147Z,118.36
2024-01-16T03:25:56.139Z,118.36
2024-01-16T03:26:56.178Z,118.36
2024-01-16T03:27:56.118Z,118.36
2024-01-16T03:28:56.106Z,118.36
2024-01-16T03:29:56.129Z,118.36
2024-01-16T03:30:56.416Z,118.36
2024-01-16T03:31:56.098Z,118.36
2024-01-16T03:32:56.117Z,118.36
2024-01-16T03:33:56.088Z,118.36
2024-01-16T03:34:56.034Z,118.36
2024-01-16T03:35:56.073Z,118.36
2024-01-16T03:36:56.005Z,118.36
2024-01-16T03:37:55.989Z,118.36
2024-01-16T03:38:56.034Z,118.36
2024-01-16T03:39:56.004Z,118.36
2024-01-16T03:40:55.965Z,118.36
2024-01-16T03:41:56.036Z,118.36
2024-01-16T03:42:55.972Z,118.36
2024-01-16T03:43:55.977Z,118.36
2024-01-16T03:44:55.972Z,118.36
2024-01-16T03:45:55.934Z,118.36
2024-01-16T03:46:55.932Z,118.36
2024-01-16T03:47:56.175Z,118.36
2024-01-16T03:48:56.032Z,118.36
2024-01-16T03:49:55.904Z,118.36
2024-01-16T03:50:55.925Z,118.36
2024-01-16T03:51:55.827Z,118.36
2024-01-16T03:52:55.902Z,118.36
2024-01-16T03:53:55.834Z,118.36
2024-01-16T03:54:55.811Z,118.36
2024-01-16T03:55:55.786Z,118.36
2024-01-16T03:56:55.854Z,118.36
2024-01-16T03:57:55.774Z,118.36
2024-01-16T03:58:55.765Z,118.36
2024-01-16T03:59:55.771Z,118.36
2024-01-16T04:00:55.770Z,118.36
2024-01-16T04:01:55.721Z,118.36
2024-01-16T04:02:55.776Z,118.36
2024-01-16T04:03:55.824Z,118.36
2024-01-16T04:04:55.722Z,118.36
2024-01-16T04:05:55.764Z,118.36
2024-01-16T04:06:55.683Z,118.36
2024-01-16T04:07:55.672Z,118.36
2024-01-16T04:08:55.695Z,118.36
2024-01-16T04:09:55.645Z,118.36
2024-01-16T04:10:55.639Z,118.36
2024-01-16T04:11:55.646Z,118.36
2024-01-16T04:12:55.633Z,118.36
2024-01-16T04:13:55.606Z,118.36
2024-01-16T04:14:55.602Z,118.36
2024-01-16T04:15:55.598Z,118.36
2024-01-16T04:16:55.586Z,118.36
2024-01-16T04:17:55.585Z,118.36
2024-01-16T04:18:55.683Z,118.36
2024-01-16T04:19:55.570Z,118.36
2024-01-16T04:20:55.611Z,118.36
2024-01-16T04:21:55.566Z,118.36
2024-01-16T04:22:55.536Z,118.36
2024-01-16T04:23:55.587Z,118.36
2024-01-16T04:24:55.521Z,118.36
2024-01-16T04:25:55.531Z,118.36
2024-01-16T04:27:02.792Z,50.00
2024-01-16T04:28:03.507Z,50.00
2024-01-16T04:29:02.784Z,50.00
2024-01-16T04:30:02.788Z,50.00
2024-01-16T04:31:09.992Z,50.00
2024-01-16T04:32:10.099Z,50.00
2024-01-16T04:33:10.102Z,50.00
2024-01-16T04:34:10.090Z,50.00
2024-01-16T04:35:10.133Z,50.00
2024-01-16T04:36:10.038Z,63.69
2024-01-16T04:37:10.039Z,79.45
2024-01-16T04:38:10.091Z,92.93
2024-01-16T04:39:10.073Z,102.57
2024-01-16T04:40:10.102Z,112.11
2024-01-16T04:41:10.081Z,121.79
2024-01-16T04:42:10.079Z,128.98
2024-01-16T04:43:10.087Z,137.40
2024-01-16T04:44:10.132Z,143.25
2024-01-16T04:45:10.105Z,148.41
2024-01-16T04:46:10.114Z,151.44
2024-01-16T04:47:10.175Z,157.43
2024-01-16T04:48:10.301Z,160.36
2024-01-16T04:49:10.193Z,166.53
2024-01-16T04:50:10.204Z,169.79
2024-01-16T04:51:10.173Z,170.96
2024-01-16T04:52:10.196Z,172.84
2024-01-16T04:53:10.205Z,175.14
2024-01-16T04:54:10.208Z,177.67
2024-01-16T04:55:10.228Z,179.99
2024-01-16T04:56:10.293Z,180.99
2024-01-16T04:57:10.263Z,180.83
2024-01-16T04:58:10.252Z,184.54
2024-01-16T04:59:10.321Z,185.49
2024-01-16T05:00:10.296Z,186.00
2024-01-16T05:01:10.357Z,188.87
2024-01-16T05:02:10.388Z,187.20
2024-01-16T05:03:10.333Z,187.98
2024-01-16T05:04:10.458Z,187.27
2024-01-16T05:05:10.461Z,189.04
2024-01-16T05:06:10.442Z,188.65
2024-01-16T05:07:10.378Z,187.45
2024-01-16T05:08:10.517Z,188.71
2024-01-16T05:09:10.385Z,187.35
2024-01-16T05:10:10.401Z,186.75
2024-01-16T05:11:10.414Z,188.12
2024-01-16T05:12:10.409Z,187.00
2024-01-16T05:13:10.406Z,186.56
2024-01-16T05:14:10.436Z,184.20
2024-01-16T05:15:10.432Z,184.53
2024-01-16T05:16:10.439Z,183.04
2024-01-16T05:17:10.471Z,183.39
2024-01-16T05:18:10.652Z,183.73
2024-01-16T05:19:10.541Z,181.87
2024-01-16T05:20:10.521Z,181.25
2024-01-16T05:21:10.570Z,181.07
2024-01-16T05:22:10.511Z,180.26
2024-01-16T05:23:10.574Z,180.95
2024-01-16T05:24:10.570Z,180.25
2024-01-16T05:25:10.592Z,177.48
2024-01-16T05:26:10.629Z,177.63
2024-01-16T05:27:10.661Z,176.36
2024-01-16T05:28:10.685Z,175.73
2024-01-16T05:29:10.755Z,172.49
2024-01-16T05:30:10.798Z,173.41
2024-01-16T05:31:10.889Z,172.07
2024-01-16T05:32:10.842Z,172.91
2024-01-16T05:33:10.971Z,171.72
2024-01-16T05:34:11.038Z,169.82
2024-01-16T05:35:11.040Z,168.01
2024-01-16T05:36:10.892Z,169.39
2024-01-16T05:37:10.907Z,166.69
2024-01-16T05:38:10.959Z,166.54
2024-01-16T05:39:10.963Z,165.07
2024-01-16T05:40:10.980Z,165.10
2024-01-16T05:41:11.024Z,162.77
2024-01-16T05:42:11.024Z,160.42
2024-01-16T05:43:11.077Z,161.33
2024-01-16T05:44:11.113Z,161.55
2024-01-16T05:45:11.131Z,160.89
2024-01-16T05:46:11.146Z,160.46
2024-01-16T05:47:11.229Z,160.07
2024-01-16T05:48:11.300Z,159.67
2024-01-16T05:49:11.327Z,158.25
2024-01-16T05:50:11.363Z,157.70
2024-01-16T05:51:11.346Z,157.17
2024-01-16T05:52:11.309Z,154.86
2024-01-16T05:53:11.390Z,154.84
2024-01-16T05:54:11.385Z,154.29
2024-01-16T05:55:11.408Z,154.47
2024-01-16T05:56:11.451Z,154.66
2024-01-16T05:57:11.469Z,154.02
2024-01-16T05:58:14.962Z,151.93
2024-01-16T05:59:11.539Z,154.96
2024-01-16T06:00:11.519Z,151.93
2024-01-16T06:01:11.542Z,150.43
2024-01-16T06:02:11.547Z,148.50
2024-01-16T06:03:11.576Z,145.56
2024-01-16T06:04:14.417Z,144.01
2024-01-16T06:05:11.654Z,144.25
2024-01-16T06:06:11.710Z,144.28
2024-01-16T06:07:11.584Z,144.16
2024-01-16T06:08:11.663Z,142.45
2024-01-16T06:09:11.605Z,140.89
2024-01-16T06:10:11.623Z,140.47
2024-01-16T06:11:14.383Z,139.37
2024-01-16T06:12:11.648Z,139.50
2024-01-16T06:13:11.663Z,139.87
2024-01-16T06:14:11.707Z,138.46
2024-01-16T06:15:11.690Z,136.43
2024-01-16T06:16:11.714Z,133.32
2024-01-16T06:17:11.738Z,133.64
2024-01-16T06:18:11.907Z,132.94
2024-01-16T06:19:11.815Z,133.25
2024-01-16T06:20:11.805Z,130.95
2024-01-16T06:21:11.768Z,129.97
2024-01-16T06:22:11.789Z,130.55
2024-01-16T06:23:11.836Z,128.38
2024-01-16T06:24:11.831Z,128.08
2024-01-16T06:25:11.839Z,128.75
2024-01-16T06:26:11.869Z,125.67
2024-01-16T06:27:11.865Z,126.73
2024-01-16T06:28:11.868Z,126.07
2024-01-16T06:29:21.418Z,128.77
2024-01-16T06:30:13.038Z,129.17
2024-01-16T06:31:11.943Z,130.26
2024-01-16T06:32:11.944Z,132.49
2024-01-16T06:33:11.986Z,135.86
2024-01-16T06:34:12.048Z,139.92
2024-01-16T06:35:11.977Z,142.89
2024-01-16T06:36:11.974Z,142.31
2024-01-16T06:37:11.990Z,141.35
2024-01-16T06:38:12.054Z,141.91
2024-01-16T06:39:12.019Z,140.57
2024-01-16T06:40:12.032Z,139.90
2024-01-16T06:41:12.069Z,139.14
2024-01-16T06:42:12.074Z,140.52
2024-01-16T06:43:12.084Z,140.33
2024-01-16T06:44:12.112Z,139.55
2024-01-16T06:45:12.110Z,139.75
2024-01-16T06:46:12.113Z,137.90
2024-01-16T06:47:12.156Z,138.40
2024-01-16T06:48:12.389Z,140.19
2024-01-16T06:49:12.258Z,136.45
2024-01-16T06:50:12.218Z,136.44
2024-01-16T06:51:12.188Z,137.47
2024-01-16T06:52:12.204Z,134.89
2024-01-16T06:53:13.740Z,135.81
2024-01-16T06:54:12.335Z,134.95
2024-01-16T06:55:12.361Z,134.76
2024-01-16T06:56:12.411Z,131.85
2024-01-16T06:57:12.421Z,135.06
2024-01-16T06:58:12.437Z,131.61
2024-01-16T06:59:12.552Z,130.06
2024-01-16T07:00:12.497Z,130.88
2024-01-16T07:01:12.633Z,129.34
2024-01-16T07:02:12.577Z,130.48
2024-01-16T07:03:12.561Z,130.63
2024-01-16T07:04:13.180Z,129.68
2024-01-16T07:05:12.711Z,128.91
2024-01-16T07:06:12.717Z,128.32
2024-01-16T07:07:13.628Z,129.05
2024-01-16T07:08:12.713Z,126.65
2024-01-16T07:09:12.705Z,126.88
2024-01-16T07:10:12.732Z,127.16
2024-01-16T07:11:12.852Z,125.14
2024-01-16T07:12:12.789Z,122.89
2024-01-16T07:13:12.824Z,125.04
2024-01-16T07:14:12.911Z,124.25
2024-01-16T07:15:12.853Z,123.34
2024-01-16T07:16:12.946Z,122.37
2024-01-16T07:17:12.978Z,120.31
2024-01-16T07:18:13.119Z,121.38
2024-01-16T07:19:13.197Z,119.89
2024-01-16T07:20:13.067Z,119.97
2024-01-16T07:21:13.041Z,121.03
2024-01-16T07:22:13.062Z,119.47
2024-01-16T07:23:13.106Z,120.46
2024-01-16T07:24:13.119Z,121.43
2024-01-16T07:25:13.146Z,119.47
2024-01-16T07:26:13.219Z,118.46
2024-01-16T07:27:13.208Z,117.04
2024-01-16T07:28:13.226Z,113.16
2024-01-16T07:29:13.333Z,55.95
2024-01-16T07:30:13.528Z,26.73
2024-01-16T07:31:13.410Z,8.15
2024-01-16T07:32:14.142Z,1.60
2024-01-16T07:33:13.688Z,22.62
2024-01-16T07:34:13.754Z,60.51
2024-01-16T07:35:13.762Z,51.62
2024-01-16T07:36:13.774Z,49.97
2024-01-16T07:37:13.812Z,49.91
2024-01-16T07:38:16.660Z,50.41
2024-01-16T07:39:13.921Z,50.02
2024-01-16T07:40:14.637Z,51.59
2024-01-16T07:41:14.007Z,50.76
2024-01-16T07:42:13.984Z,50.19
2024-01-16T07:43:14.009Z,53.30
2024-01-16T07:44:14.653Z,51.41
2024-01-16T07:45:14.076Z,50.88
2024-01-16T07:46:14.056Z,50.29
2024-01-16T07:47:14.114Z,51.12
2024-01-16T07:48:14.154Z,50.74
2024-01-16T07:49:14.143Z,50.67
2024-01-16T07:50:14.178Z,50.93
2024-01-16T07:51:14.151Z,51.45
2024-01-16T07:52:14.167Z,51.45
2024-01-16T07:53:14.184Z,53.73
2024-01-16T07:54:14.210Z,54.14
2024-01-16T07:55:14.196Z,61.13
2024-01-16T07:56:14.242Z,64.27
2024-01-16T07:57:14.228Z,66.35
2024-01-16T07:58:14.229Z,70.24
2024-01-16T07:59:14.238Z,74.00
2024-01-16T08:00:15.132Z,78.36
2024-01-16T08:01:14.395Z,80.23
2024-01-16T08:02:14.352Z,85.74
2024-01-16T08:03:14.437Z,89.79
2024-01-16T08:04:14.536Z,93.05
2024-01-16T08:05:14.621Z,99.51
2024-01-16T08:06:14.736Z,102.76
2024-01-16T08:07:14.683Z,106.41
2024-01-16T08:08:15.586Z,111.21
2024-01-16T08:09:14.864Z,114.72
2024-01-16T08:10:17.170Z,119.85
2024-01-16T08:11:14.915Z,124.57
2024-01-16T08:12:14.891Z,128.53
2024-01-16T08:13:14.906Z,130.81
2024-01-16T08:14:14.956Z,134.36
2024-01-16T08:15:14.935Z,137.18
2024-01-16T08:16:14.984Z,142.07
2024-01-16T08:17:14.989Z,139.92
2024-01-16T08:18:15.155Z,143.93
2024-01-16T08:19:15.075Z,144.86
2024-01-16T08:20:15.017Z,145.22
2024-01-16T08:21:15.005Z,148.64
2024-01-16T08:22:15.009Z,149.79
2024-01-16T08:23:15.134Z,148.52
2024-01-16T08:24:15.053Z,149.66
2024-01-16T08:25:15.593Z,149.84
2024-01-16T08:26:15.090Z,149.03
2024-01-16T08:27:15.109Z,151.23
2024-01-16T08:28:15.125Z,151.21
2024-01-16T08:29:15.149Z,154.07
2024-01-16T08:30:15.257Z,156.16
2024-01-16T08:31:15.134Z,155.48
2024-01-16T08:32:15.234Z,158.25
2024-01-16T08:33:16.845Z,158.12
2024-01-16T08:34:15.325Z,158.10
2024-01-16T08:35:15.351Z,161.43
2024-01-16T08:36:15.258Z,161.49
2024-01-16T08:37:16.231Z,161.73
2024-01-16T08:38:15.295Z,162.30
2024-01-16T08:39:15.257Z,162.84
2024-01-16T08:40:15.259Z,162.01
2024-01-16T08:41:15.296Z,163.52
2024-01-16T08:42:16.176Z,163.83
2024-01-16T08:43:15.284Z,165.39
2024-01-16T08:44:15.323Z,164.05
2024-01-16T08:45:15.308Z,164.15
2024-01-16T08:46:15.319Z,162.77
2024-01-16T08:47:15.385Z,163.09
2024-01-16T08:48:15.502Z,165.13
2024-01-16T08:49:18.797Z,161.40
2024-01-16T08:50:16.505Z,161.66
2024-01-16T08:51:16.316Z,161.96
2024-01-16T08:52:15.452Z,161.57
2024-01-16T08:53:15.515Z,162.54
2024-01-16T08:54:15.498Z,162.90
2024-01-16T08:55:15.500Z,163.02
2024-01-16T08:56:15.519Z,162.62
2024-01-16T08:57:17.849Z,160.89
2024-01-16T08:58:15.542Z,162.88
2024-01-16T08:59:15.557Z,163.15
2024-01-16T09:00:15.555Z,163.09
2024-01-16T09:01:15.604Z,164.09
2024-01-16T09:02:15.614Z,161.30
2024-01-16T09:03:15.602Z,160.68
2024-01-16T09:04:15.618Z,161.62
2024-01-16T09:05:15.686Z,158.68
2024-01-16T09:06:15.749Z,160.82
2024-01-16T09:07:15.804Z,160.52
2024-01-16T09:08:15.740Z,159.40
2024-01-16T09:09:15.693Z,160.21
2024-01-16T09:10:15.710Z,160.57
2024-01-16T09:11:15.747Z,160.16
2024-01-16T09:12:15.759Z,158.41
2024-01-16T09:13:15.784Z,158.36
2024-01-16T09:14:15.816Z,156.95
2024-01-16T09:15:15.800Z,158.64
2024-01-16T09:16:16.653Z,156.13
2024-01-16T09:17:15.857Z,155.04
2024-01-16T09:18:16.001Z,158.26
2024-01-16T09:19:15.923Z,155.08
2024-01-16T09:20:17.080Z,159.52
2024-01-16T09:21:15.875Z,164.84
2024-01-16T09:22:15.887Z,171.70
2024-01-16T09:23:15.896Z,176.44
2024-01-16T09:24:15.913Z,178.72
2024-01-16T09:25:15.910Z,184.76
2024-01-16T09:26:17.719Z,185.19
2024-01-16T09:27:15.931Z,186.91
2024-01-16T09:28:15.973Z,189.79
2024-01-16T09:29:16.019Z,196.31
2024-01-16T09:30:15.985Z,207.61
2024-01-16T09:31:16.624Z,200.00
2024-01-16T09:32:16.012Z,198.89
2024-01-16T09:33:16.077Z,200.07
2024-01-16T09:34:16.026Z,200.00
2024-01-16T09:35:16.057Z,198.89
2024-01-16T09:36:16.014Z,200.00
2024-01-16T09:37:16.014Z,200.00
2024-01-16T09:38:16.053Z,199.94
2024-01-16T09:39:19.026Z,200.17
2024-01-16T09:40:16.044Z,200.29
2024-01-16T09:41:16.095Z,201.59
2024-01-16T09:42:16.084Z,204.36
2024-01-16T09:43:16.070Z,209.01
2024-01-16T09:44:16.104Z,218.21
2024-01-16T09:45:16.065Z,205.70
2024-01-16T09:46:16.083Z,200.00
2024-01-16T09:47:16.088Z,200.00
2024-01-16T09:48:16.145Z,199.92
2024-01-16T09:49:16.175Z,199.55
2024-01-16T09:50:16.153Z,199.63
2024-01-16T09:51:16.085Z,199.80
2024-01-16T09:52:16.095Z,199.33
2024-01-16T09:53:16.109Z,200.00
2024-01-16T09:54:16.096Z,200.00
2024-01-16T09:55:16.071Z,199.75
2024-01-16T09:56:16.149Z,199.27
2024-01-16T09:57:16.084Z,200.00
2024-01-16T09:58:16.070Z,199.42
2024-01-16T09:59:16.159Z,200.00
2024-01-16T10:00:17.716Z,200.13
2024-01-16T10:01:16.103Z,198.25
2024-01-16T10:02:16.100Z,199.81
2024-01-16T10:03:16.061Z,200.00
2024-01-16T10:04:16.097Z,199.46
2024-01-16T10:05:16.161Z,199.51
2024-01-16T10:06:16.078Z,200.00
2024-01-16T10:07:16.617Z,198.23
2024-01-16T10:08:16.075Z,199.20
2024-01-16T10:09:16.068Z,200.00
2024-01-16T10:10:21.753Z,200.00
2024-01-16T10:11:17.636Z,200.10
2024-01-16T10:12:16.025Z,200.62
2024-01-16T10:13:16.020Z,201.47
2024-01-16T10:14:16.040Z,203.79
2024-01-16T10:15:16.009Z,206.33
2024-01-16T10:16:16.034Z,199.62
2024-01-16T10:17:17.330Z,199.82
2024-01-16T10:18:16.360Z,200.41
2024-01-16T10:19:16.012Z,201.54
2024-01-16T10:20:16.066Z,202.84
2024-01-16T10:21:15.986Z,206.82
2024-01-16T10:22:16.621Z,199.73
2024-01-16T10:23:16.000Z,198.41
2024-01-16T10:24:15.972Z,199.27
2024-01-16T10:25:16.710Z,199.35
2024-01-16T10:26:16.006Z,197.36
2024-01-16T10:27:16.617Z,180.70
2024-01-16T10:28:15.971Z,189.27
2024-01-16T10:29:17.154Z,198.34
2024-01-16T10:30:16.085Z,199.00
2024-01-16T10:31:16.102Z,198.30
2024-01-16T10:32:16.078Z,195.73
2024-01-16T10:33:16.312Z,193.80
2024-01-16T10:34:16.991Z,192.17
2024-01-16T10:35:16.704Z,191.71
2024-01-16T10:36:16.127Z,190.30
2024-01-16T10:37:16.146Z,190.29
2024-01-16T10:38:16.199Z,190.26
2024-01-16T10:39:16.186Z,190.48
2024-01-16T10:40:16.226Z,190.50
2024-01-16T10:41:16.310Z,190.21
2024-01-16T10:42:16.272Z,191.95
2024-01-16T10:43:16.272Z,191.25
2024-01-16T10:44:16.332Z,191.90
2024-01-16T10:45:16.298Z,193.48
2024-01-16T10:46:17.151Z,193.70
2024-01-16T10:47:18.248Z,194.44
2024-01-16T10:48:16.568Z,195.67
2024-01-16T10:49:16.317Z,196.61
2024-01-16T10:50:16.398Z,197.08
2024-01-16T10:51:16.618Z,198.21
2024-01-16T10:52:16.348Z,198.61
2024-01-16T10:53:16.402Z,199.97
2024-01-16T10:54:16.365Z,200.00
2024-01-16T10:55:16.366Z,200.00
2024-01-16T10:56:16.422Z,199.39
2024-01-16T10:57:16.408Z,200.00
2024-01-16T10:58:16.402Z,199.82
2024-01-16T10:59:23.255Z,199.14
2024-01-16T11:00:16.414Z,199.25
2024-01-16T11:01:16.511Z,199.86
2024-01-16T11:02:16.404Z,200.57
2024-01-16T11:03:16.353Z,202.36
2024-01-16T11:04:16.476Z,204.60
2024-01-16T11:05:16.460Z,199.59
2024-01-16T11:06:16.578Z,199.64
2024-01-16T11:07:16.317Z,199.29
2024-01-16T11:08:16.344Z,199.84
2024-01-16T11:09:16.295Z,199.83
2024-01-16T11:10:16.290Z,199.88
2024-01-16T11:11:16.373Z,199.47
2024-01-16T11:12:16.263Z,199.07
2024-01-16T11:13:16.255Z,199.27
2024-01-16T11:14:16.303Z,198.45
2024-01-16T11:15:17.267Z,198.81
2024-01-16T11:16:16.231Z,197.38
2024-01-16T11:17:16.279Z,197.67
2024-01-16T11:18:16.337Z,197.92
2024-01-16T11:19:31.399Z,198.21
2024-01-16T11:20:30.128Z,198.32
2024-01-16T11:21:18.204Z,198.38
2024-01-16T11:22:16.295Z,198.43
2024-01-16T11:23:16.197Z,198.90
2024-01-16T11:24:16.163Z,198.79
2024-01-16T11:25:16.219Z,198.82
2024-01-16T11:26:16.308Z,198.18
2024-01-16T11:27:16.113Z,197.50
2024-01-16T11:28:16.112Z,196.77
2024-01-16T11:29:16.131Z,195.55
2024-01-16T11:30:16.132Z,196.47
2024-01-16T11:31:16.102Z,195.62
2024-01-16T11:32:27.460Z,195.20
2024-01-16T11:33:17.316Z,195.35
2024-01-16T11:34:17.046Z,195.54
2024-01-16T11:35:16.296Z,195.57
2024-01-16T11:36:16.218Z,195.12
2024-01-16T11:37:16.233Z,194.57
2024-01-16T11:38:17.274Z,193.46
2024-01-16T11:39:16.372Z,193.42
2024-01-16T11:40:16.343Z,193.79
2024-01-16T11:41:17.118Z,193.39
2024-01-16T11:42:16.537Z,192.47
2024-01-16T11:43:16.382Z,192.16
2024-01-16T11:44:17.578Z,192.21
2024-01-16T11:45:16.390Z,192.18
2024-01-16T11:46:16.396Z,192.23
2024-01-16T11:47:16.467Z,192.26
2024-01-16T11:48:17.015Z,192.26
2024-01-16T11:49:16.416Z,192.26
2024-01-16T11:50:16.451Z,192.23
2024-01-16T11:51:16.372Z,191.48
2024-01-16T11:52:16.373Z,191.18
2024-01-16T11:53:17.218Z,190.48
2024-01-16T11:54:16.357Z,189.44
2024-01-16T11:55:16.380Z,190.51
2024-01-16T11:56:16.434Z,189.95
2024-01-16T11:57:16.386Z,189.68
2024-01-16T11:58:17.146Z,190.00
2024-01-16T11:59:16.454Z,189.17
2024-01-16T12:00:16.370Z,189.05
2024-01-16T12:01:16.395Z,189.41
2024-01-16T12:02:16.436Z,189.45
2024-01-16T12:03:28.279Z,189.51
2024-01-16T12:04:17.413Z,189.46
2024-01-16T12:05:16.526Z,189.30
2024-01-16T12:06:16.476Z,184.30
2024-01-16T12:07:16.437Z,152.75
2024-01-16T12:08:16.475Z,121.51
2024-01-16T12:09:16.418Z,104.20
2024-01-16T12:10:16.415Z,75.92
2024-01-16T12:11:16.504Z,54.92
2024-01-16T12:12:16.540Z,48.15
2024-01-16T12:13:16.476Z,41.70
2024-01-16T12:14:16.567Z,39.39
2024-01-16T12:15:16.577Z,39.18
2024-01-16T12:16:16.601Z,38.34
2024-01-16T12:17:16.730Z,41.80
2024-01-16T12:18:26.794Z,43.21
2024-01-16T12:19:17.932Z,37.58
2024-01-16T12:20:16.968Z,34.98
2024-01-16T12:21:17.415Z,29.62
2024-01-16T12:22:16.988Z,27.04
2024-01-16T12:23:17.034Z,22.80
2024-01-16T12:24:18.692Z,26.25
2024-01-16T12:25:17.143Z,31.83
2024-01-16T12:26:17.210Z,37.29
2024-01-16T12:27:17.252Z,42.22
2024-01-16T12:28:24.475Z,45.69
2024-01-16T12:29:18.385Z,45.70
2024-01-16T12:30:17.470Z,44.84
2024-01-16T12:31:17.498Z,42.60